createdAt,value
2018-01-30T00:58:03.309Z,3.10
2018-01-30T01:00:29.486Z,2.73
2018-01-30T01:02:55.701Z,2.80
2018-01-30T01:05:21.979Z,3.17
2018-01-30T01:07:48.149Z,2.93
2018-01-30T01:10:14.308Z,3.23
2018-01-30T01:12:40.503Z,3.40
2018-01-30T01:15:06.772Z,4.40
2018-01-30T01:17:33.000Z,4.17
2018-01-30T01:19:59.142Z,5.23
2018-01-30T01:22:25.308Z,4.87
2018-01-30T01:24:51.560Z,4.80
2018-01-30T01:27:17.982Z,5.10
2018-01-30T01:29:45.155Z,7.20
2018-01-30T01:32:11.471Z,6.93
2018-01-30T01:34:37.787Z,6.10
2018-01-30T01:37:04.118Z,5.37
2018-01-30T01:39:30.261Z,4.73
2018-01-30T01:41:56.415Z,4.33
2018-01-30T01:44:22.633Z,4.20
2018-01-30T01:46:48.823Z,4.50
2018-01-30T01:49:14.968Z,3.80
2018-01-30T01:51:41.150Z,4.87
2018-01-30T01:54:07.297Z,3.80
2018-01-30T01:56:33.456Z,4.57
2018-01-30T01:58:59.619Z,3.90
2018-01-30T02:01:25.772Z,4.30
2018-01-30T02:03:51.891Z,4.03
2018-01-30T02:06:18.102Z,4.40
2018-01-30T02:08:44.269Z,4.60
2018-01-30T02:11:10.449Z,3.70
2018-01-30T02:13:36.658Z,4.97
2018-01-30T02:16:02.943Z,3.93
2018-01-30T02:18:29.077Z,4.50
2018-01-30T02:20:55.293Z,3.83
2018-01-30T02:23:21.455Z,4.20
2018-01-30T02:25:47.603Z,4.10
2018-01-30T02:28:13.796Z,3.97
2018-01-30T02:30:39.940Z,4.87
2018-01-30T02:33:06.628Z,3.90
2018-01-30T02:35:34.028Z,4.33
2018-01-30T02:38:00.188Z,3.73
2018-01-30T02:40:26.346Z,3.57
2018-01-30T02:42:52.530Z,3.47
2018-01-30T02:45:18.711Z,4.47
2018-01-30T02:47:44.844Z,4.50
2018-01-30T02:50:11.034Z,4.30
2018-01-30T02:52:37.235Z,4.43
2018-01-30T02:55:04.415Z,4.07
2018-01-30T02:57:30.575Z,4.73
2018-01-30T02:59:56.721Z,3.80
2018-01-30T03:02:22.856Z,4.37
2018-01-30T03:04:49.042Z,3.77
2018-01-30T03:07:15.168Z,3.70
2018-01-30T03:09:41.382Z,3.83
2018-01-30T03:12:07.583Z,4.73
2018-01-30T03:14:33.754Z,4.03
2018-01-30T03:16:59.939Z,4.47
2018-01-30T03:19:26.137Z,4.50
2018-01-30T03:21:52.293Z,4.40
2018-01-30T03:24:18.415Z,3.93
2018-01-30T03:26:44.664Z,4.17
2018-01-30T03:29:10.822Z,4.47
2018-01-30T03:31:36.956Z,3.77
2018-01-30T03:34:03.183Z,4.17
2018-01-30T03:36:29.328Z,4.00
2018-01-30T03:38:55.485Z,4.30
2018-01-30T03:41:21.620Z,4.57
2018-01-30T03:43:47.796Z,4.23
2018-01-30T03:46:13.943Z,3.90
2018-01-30T03:48:40.129Z,4.53
2018-01-30T03:51:06.287Z,4.23
2018-01-30T03:53:32.429Z,4.50
2018-01-30T03:55:58.681Z,4.20
2018-01-30T03:58:24.831Z,6.20
2018-01-30T04:00:50.968Z,4.00
2018-01-30T04:03:17.125Z,4.60
2018-01-30T04:05:43.281Z,4.60
2018-01-30T04:08:09.418Z,3.60
2018-01-30T04:10:35.613Z,4.23
2018-01-30T04:13:01.766Z,4.07
2018-01-30T04:15:27.937Z,3.97
2018-01-30T04:17:54.230Z,4.13
2018-01-30T04:20:20.434Z,3.90
2018-01-30T04:22:46.597Z,3.97
2018-01-30T04:25:12.759Z,4.20
2018-01-30T04:27:38.936Z,4.67
2018-01-30T04:30:05.108Z,5.57
2018-01-30T04:32:31.336Z,5.30
2018-01-30T04:34:57.481Z,4.53
2018-01-30T04:37:23.652Z,4.37
2018-01-30T04:39:49.903Z,4.80
2018-01-30T04:42:16.912Z,4.50
2018-01-30T04:44:43.069Z,5.10
2018-01-30T04:47:09.342Z,5.40
2018-01-30T04:49:35.492Z,5.30
2018-01-30T04:52:01.624Z,5.50
2018-01-30T04:54:27.829Z,4.97
2018-01-30T04:56:53.976Z,4.50
2018-01-30T04:59:20.118Z,5.00
2018-01-30T05:01:46.287Z,5.27
2018-01-30T05:04:12.441Z,5.23
2018-01-30T05:06:38.609Z,5.20
2018-01-30T05:09:04.834Z,6.63
2018-01-30T05:11:30.999Z,6.87
2018-01-30T05:13:57.162Z,8.03
2018-01-30T05:16:23.366Z,7.03
2018-01-30T05:18:49.610Z,6.00
2018-01-30T05:21:15.760Z,6.93
2018-01-30T05:23:41.965Z,6.37
2018-01-30T05:26:08.119Z,5.37
2018-01-30T05:28:34.285Z,5.97
2018-01-30T05:31:00.461Z,6.73
2018-01-30T05:33:26.632Z,6.33
2018-01-30T05:35:52.786Z,7.07
2018-01-30T05:38:18.953Z,9.03
2018-01-30T05:40:45.107Z,8.23
2018-01-30T05:43:11.257Z,7.50
2018-01-30T05:45:37.425Z,8.10
2018-01-30T05:48:03.684Z,7.43
2018-01-30T05:50:29.863Z,6.23
2018-01-30T05:52:56.095Z,7.80
2018-01-30T05:55:22.246Z,8.20
2018-01-30T05:57:48.400Z,8.10
2018-01-30T06:00:14.572Z,10.77
2018-01-30T06:02:40.724Z,12.30
2018-01-30T06:05:06.880Z,10.83
2018-01-30T06:07:33.029Z,8.77
2018-01-30T06:09:59.203Z,8.93
2018-01-30T06:12:26.344Z,11.30
2018-01-30T06:14:52.472Z,15.63
2018-01-30T06:17:18.799Z,16.23
2018-01-30T06:19:45.040Z,15.30
2018-01-30T06:22:11.201Z,14.20
2018-01-30T06:24:37.431Z,14.93
2018-01-30T06:27:03.591Z,11.97
2018-01-30T06:29:29.756Z,12.03
2018-01-30T06:31:56.676Z,9.87
2018-01-30T06:34:22.879Z,10.73
2018-01-30T06:36:49.194Z,9.63
2018-01-30T06:39:16.914Z,8.60
2018-01-30T06:41:43.067Z,9.93
2018-01-30T06:44:09.194Z,10.57
2018-01-30T06:46:35.398Z,8.60
2018-01-30T06:49:01.646Z,10.17
2018-01-30T06:51:27.890Z,8.97
2018-01-30T06:53:54.093Z,13.23
2018-01-30T06:56:20.295Z,13.97
2018-01-30T06:58:46.483Z,14.87
2018-01-30T07:01:12.655Z,13.70
2018-01-30T07:03:38.777Z,14.23
2018-01-30T07:06:04.945Z,13.27
2018-01-30T07:08:31.121Z,13.90
2018-01-30T07:10:57.275Z,16.27
2018-01-30T07:13:23.497Z,19.57
2018-01-30T07:15:49.664Z,14.00
2018-01-30T07:18:15.880Z,12.80
2018-01-30T07:20:42.166Z,15.60
2018-01-30T07:23:08.785Z,15.60
2018-01-30T07:25:35.015Z,16.63
2018-01-30T07:28:01.243Z,17.33
2018-01-30T07:30:27.372Z,21.73
2018-01-30T07:32:53.537Z,22.23
2018-01-30T07:35:19.769Z,24.83
2018-01-30T07:37:45.905Z,21.27
2018-01-30T07:40:12.036Z,19.30
2018-01-30T07:42:38.248Z,20.70
2018-01-30T07:45:04.419Z,21.13
2018-01-30T07:47:30.617Z,20.00
2018-01-30T07:49:56.923Z,20.73
2018-01-30T07:52:23.092Z,22.00
2018-01-30T07:54:49.364Z,20.17
2018-01-30T07:57:15.590Z,20.57
2018-01-30T07:59:41.746Z,20.20
2018-01-30T08:02:07.895Z,20.73
2018-01-30T08:04:34.141Z,22.50
2018-01-30T08:07:01.199Z,21.87
2018-01-30T08:09:27.339Z,21.40
2018-01-30T08:11:53.545Z,20.97
2018-01-30T08:14:19.693Z,19.43
2018-01-30T08:16:45.872Z,20.07
2018-01-30T08:19:12.097Z,21.97
2018-01-30T08:21:38.312Z,23.07
2018-01-30T08:24:04.489Z,25.50
2018-01-30T08:26:30.634Z,21.73
2018-01-30T08:28:56.826Z,22.17
2018-01-30T08:31:22.998Z,22.07
2018-01-30T08:33:49.194Z,22.53
2018-01-30T08:36:15.356Z,22.47
2018-01-30T08:38:41.551Z,19.57
2018-01-30T08:41:07.712Z,20.77
2018-01-30T08:43:33.842Z,18.63
2018-01-30T08:46:00.048Z,19.70
2018-01-30T08:48:26.282Z,33.93
2018-01-30T08:50:52.498Z,35.20
2018-01-30T08:53:18.711Z,29.93
2018-01-30T08:55:45.176Z,27.37
2018-01-30T08:58:11.478Z,21.63
2018-01-30T09:00:37.704Z,17.20
2018-01-30T09:03:03.840Z,14.57
2018-01-30T09:05:30.007Z,12.63
2018-01-30T09:07:56.212Z,11.37
2018-01-30T09:10:22.374Z,12.23
2018-01-30T09:12:48.601Z,10.90
2018-01-30T09:15:14.933Z,10.50
2018-01-30T09:17:41.157Z,10.93
2018-01-30T09:20:07.467Z,11.37
2018-01-30T09:22:33.594Z,12.53
2018-01-30T09:24:59.735Z,11.80
2018-01-30T09:27:25.945Z,11.77
2018-01-30T09:29:52.154Z,12.17
2018-01-30T09:32:18.274Z,11.10
2018-01-30T09:34:44.455Z,10.67
2018-01-30T09:37:10.628Z,10.80
2018-01-30T09:39:36.816Z,10.57
2018-01-30T09:42:03.018Z,11.07
2018-01-30T09:44:29.220Z,11.40
2018-01-30T09:46:55.433Z,10.73
2018-01-30T09:49:21.672Z,11.13
2018-01-30T09:51:47.824Z,11.23
2018-01-30T09:54:14.006Z,11.77
2018-01-30T09:56:40.149Z,11.47
2018-01-30T09:59:06.337Z,10.83
2018-01-30T10:01:32.567Z,12.30
2018-01-30T10:03:58.739Z,11.87
2018-01-30T10:06:24.894Z,11.57
2018-01-30T10:08:51.080Z,10.73
2018-01-30T10:11:17.261Z,11.20
2018-01-30T10:13:43.517Z,11.73
2018-01-30T10:16:09.710Z,12.27
2018-01-30T10:18:37.131Z,11.83
2018-01-30T10:21:03.340Z,11.67
2018-01-30T10:23:30.107Z,11.43
2018-01-30T10:25:56.355Z,11.17
2018-01-30T10:28:23.188Z,10.40
2018-01-30T10:30:49.387Z,11.00
2018-01-30T10:33:15.751Z,9.77
2018-01-30T10:35:41.879Z,9.83
2018-01-30T10:38:08.055Z,9.93
2018-01-30T10:40:34.217Z,9.87
2018-01-30T10:43:00.403Z,8.50
2018-01-30T10:45:26.723Z,8.57
2018-01-30T10:50:53.936Z,7.63
2018-01-30T10:53:26.706Z,7.47
2018-01-30T10:55:53.204Z,7.40
2018-01-30T10:58:28.647Z,6.60
2018-01-30T11:01:03.395Z,6.60
2018-01-30T11:03:32.513Z,6.63
2018-01-30T11:06:00.852Z,6.43
2018-01-30T11:08:28.663Z,6.10
2018-01-30T11:10:56.317Z,6.60
2018-01-30T11:13:24.272Z,5.97
2018-01-30T11:15:55.662Z,5.33
2018-01-30T11:18:24.004Z,4.30
2018-01-30T11:20:51.726Z,4.27
2018-01-30T11:23:19.348Z,4.33
2018-01-30T11:25:47.072Z,5.37
2018-01-30T11:28:14.332Z,5.93
2018-01-30T11:30:43.290Z,4.40
2018-01-30T11:33:11.333Z,4.20
2018-01-30T11:35:40.568Z,4.47
2018-01-30T11:38:08.831Z,4.03
2018-01-30T11:40:37.567Z,4.63
2018-01-30T11:43:05.246Z,4.20
2018-01-30T11:48:26.751Z,4.60
2018-01-30T11:50:56.775Z,4.83
2018-01-30T11:53:26.279Z,4.80
2018-01-30T11:55:52.460Z,5.30
2018-01-30T11:58:18.652Z,5.10
2018-01-30T12:00:44.876Z,5.43
2018-01-30T12:03:11.030Z,5.30
2018-01-30T12:05:37.269Z,5.30
2018-01-30T12:08:03.506Z,5.67
2018-01-30T12:10:29.687Z,5.30
2018-01-30T12:12:55.841Z,5.00
2018-01-30T12:15:22.105Z,4.70
2018-01-30T12:17:48.341Z,4.87
2018-01-30T12:20:14.533Z,5.00
2018-01-30T12:22:40.759Z,4.90
2018-01-30T12:25:06.906Z,4.50
2018-01-30T12:27:33.067Z,4.57
2018-01-30T12:29:59.265Z,4.70
2018-01-30T12:32:25.405Z,5.07
2018-01-30T12:34:51.616Z,6.53
2018-01-30T12:37:17.776Z,4.80
2018-01-30T12:39:43.982Z,4.93
2018-01-30T12:42:10.213Z,4.10
2018-01-30T12:44:36.372Z,5.40
2018-01-30T12:47:02.563Z,4.77
2018-01-30T12:49:28.783Z,5.40
2018-01-30T12:51:55.903Z,5.00
2018-01-30T12:54:22.065Z,5.67
2018-01-30T12:56:48.314Z,4.97
2018-01-30T12:59:14.508Z,5.50
2018-01-30T13:01:40.640Z,5.30
2018-01-30T13:04:06.836Z,6.27
2018-01-30T13:06:32.966Z,5.67
2018-01-30T13:08:59.152Z,5.63
2018-01-30T13:11:25.338Z,5.60
2018-01-30T13:13:51.549Z,5.47
2018-01-30T13:16:17.721Z,5.40
2018-01-30T13:18:43.918Z,5.70
2018-01-30T13:21:10.773Z,5.70
2018-01-30T13:23:37.920Z,6.23
2018-01-30T13:26:04.087Z,5.97
2018-01-30T13:28:30.207Z,6.60
2018-01-30T13:30:56.341Z,6.17
2018-01-30T13:33:22.512Z,6.40
2018-01-30T13:35:48.703Z,5.63
2018-01-30T13:38:14.911Z,6.17
2018-01-30T13:40:41.142Z,7.30
2018-01-30T13:43:07.348Z,6.70
2018-01-30T13:45:33.488Z,5.97
2018-01-30T13:47:59.725Z,5.17
2018-01-30T13:50:27.082Z,6.90
2018-01-30T13:52:53.215Z,5.83
2018-01-30T13:55:19.440Z,5.93
2018-01-30T13:57:45.571Z,6.07
2018-01-30T14:00:11.767Z,5.27
2018-01-30T14:02:37.958Z,5.60
2018-01-30T14:05:04.113Z,6.27
2018-01-30T14:07:30.271Z,6.03
2018-01-30T14:09:56.536Z,4.93
2018-01-30T14:12:22.699Z,5.17
2018-01-30T14:14:48.831Z,5.50
2018-01-30T14:17:15.130Z,6.50
2018-01-30T14:19:41.256Z,6.43
2018-01-30T14:22:07.355Z,5.50
2018-01-30T14:24:33.574Z,4.20
2018-01-30T14:26:59.708Z,5.00
2018-01-30T14:29:25.830Z,4.27
2018-01-30T14:31:52.075Z,4.80
2018-01-30T14:34:18.221Z,3.60
2018-01-30T14:36:44.385Z,4.30
2018-01-30T14:39:10.558Z,4.50
2018-01-30T14:41:36.693Z,4.17
2018-01-30T14:44:02.863Z,4.33
2018-01-30T14:46:29.019Z,4.63
2018-01-30T14:48:55.208Z,5.03
2018-01-30T14:51:21.408Z,5.20
2018-01-30T14:53:47.559Z,4.57
2018-01-30T14:56:13.805Z,4.63
2018-01-30T14:58:39.962Z,5.10
2018-01-30T15:01:06.166Z,4.60
2018-01-30T15:03:32.294Z,4.97
2018-01-30T15:05:58.464Z,5.80
2018-01-30T15:08:24.706Z,4.90
2018-01-30T15:10:50.873Z,5.70
2018-01-30T15:13:17.065Z,4.53
2018-01-30T15:15:43.297Z,4.50
2018-01-30T15:18:09.633Z,4.23
2018-01-30T15:20:35.787Z,5.10
2018-01-30T15:23:01.927Z,5.87
2018-01-30T15:25:28.100Z,5.63
2018-01-30T15:27:54.245Z,6.03
2018-01-30T15:30:20.436Z,5.93
2018-01-30T15:32:46.588Z,6.07
2018-01-30T15:35:12.750Z,6.60
2018-01-30T15:37:38.944Z,6.07
2018-01-30T15:40:05.210Z,7.63
2018-01-30T15:42:31.334Z,7.63
2018-01-30T15:44:57.490Z,7.00
2018-01-30T15:47:24.718Z,6.87
2018-01-30T15:49:50.872Z,6.83
2018-01-30T15:52:17.013Z,6.43
2018-01-30T15:54:43.164Z,6.03
2018-01-30T15:57:09.304Z,6.40
2018-01-30T15:59:35.457Z,6.70
2018-01-30T16:02:01.735Z,6.90
2018-01-30T16:04:28.040Z,7.13
2018-01-30T16:06:54.216Z,6.67
2018-01-30T16:09:20.490Z,6.83
2018-01-30T16:11:46.629Z,6.77
2018-01-30T16:14:12.800Z,6.67
2018-01-30T16:16:38.942Z,6.50
2018-01-30T16:19:05.143Z,7.17
2018-01-30T16:21:31.265Z,7.53
2018-01-30T16:23:57.449Z,7.60
2018-01-30T16:26:23.598Z,8.47
2018-01-30T16:28:49.919Z,7.60
2018-01-30T16:31:16.138Z,8.13
2018-01-30T16:33:42.285Z,8.00
2018-01-30T16:36:08.499Z,8.27
2018-01-30T16:38:34.672Z,8.20
2018-01-30T16:41:00.848Z,8.60
2018-01-30T16:43:27.027Z,11.03
2018-01-30T16:45:53.236Z,31.20
2018-01-30T16:48:19.444Z,31.47
2018-01-30T16:50:45.579Z,15.07
2018-01-30T16:53:11.748Z,21.17
2018-01-30T16:55:38.111Z,16.27
2018-01-30T16:58:04.257Z,21.20
2018-01-30T17:00:30.439Z,32.10
2018-01-30T17:02:56.715Z,37.10
2018-01-30T17:05:22.937Z,27.30
2018-01-30T17:07:49.130Z,20.53
2018-01-30T17:10:15.389Z,18.63
2018-01-30T17:12:41.553Z,17.83
2018-01-30T17:15:07.727Z,19.60
2018-01-30T17:17:33.997Z,27.33
2018-01-30T17:20:00.162Z,31.03
2018-01-30T17:22:26.329Z,26.33
2018-01-30T17:24:52.568Z,19.63
2018-01-30T17:27:18.816Z,26.37
2018-01-30T17:29:45.010Z,22.67
2018-01-30T17:32:11.286Z,22.43
2018-01-30T17:34:37.459Z,16.97
2018-01-30T17:37:03.644Z,16.23
2018-01-30T17:39:29.835Z,15.80
2018-01-30T17:41:56.023Z,15.73
2018-01-30T17:44:22.213Z,16.43
2018-01-30T17:46:48.479Z,17.03
2018-01-30T17:49:14.729Z,16.77
2018-01-30T17:51:40.966Z,15.30
2018-01-30T17:54:07.214Z,17.27
2018-01-30T17:56:33.408Z,20.40
2018-01-30T17:58:59.602Z,17.50
2018-01-30T18:01:25.830Z,18.23
2018-01-30T18:03:51.997Z,17.63
2018-01-30T18:06:18.148Z,17.67
2018-01-30T18:08:44.322Z,16.23
2018-01-30T18:11:10.513Z,16.60
2018-01-30T18:13:36.680Z,16.60
2018-01-30T18:16:02.865Z,17.70
2018-01-30T18:18:29.233Z,16.97
2018-01-30T18:20:55.385Z,18.17
2018-01-30T18:23:21.565Z,19.50
2018-01-30T18:25:47.755Z,21.57
2018-01-30T18:28:13.970Z,20.43
2018-01-30T18:30:40.161Z,19.63
2018-01-30T18:33:06.332Z,20.80
2018-01-30T18:35:32.480Z,19.20
2018-01-30T18:37:58.690Z,22.13
2018-01-30T18:40:24.840Z,22.87
2018-01-30T18:42:51.027Z,31.57
2018-01-30T18:45:17.263Z,46.57
2018-01-30T18:47:43.532Z,42.23
2018-01-30T18:50:09.672Z,31.87
2018-01-30T18:52:35.960Z,24.67
2018-01-30T18:55:02.167Z,23.37
2018-01-30T18:57:28.389Z,36.63
2018-01-30T18:59:54.577Z,37.43
2018-01-30T19:02:20.827Z,44.90
2018-01-30T19:04:47.018Z,40.40
2018-01-30T19:07:13.189Z,35.43
2018-01-30T19:09:39.593Z,28.80
2018-01-30T19:12:05.854Z,26.13
2018-01-30T19:14:32.038Z,26.60
2018-01-30T19:16:58.187Z,29.30
2018-01-30T19:19:24.501Z,27.50
2018-01-30T19:21:51.505Z,25.63
2018-01-30T19:24:17.709Z,21.60
2018-01-30T19:26:43.961Z,20.97
2018-01-30T19:29:10.131Z,23.27
2018-01-30T19:31:36.317Z,23.23
2018-01-30T19:34:02.570Z,26.27
2018-01-30T19:36:28.720Z,27.43
2018-01-30T19:38:54.912Z,27.73
2018-01-30T19:41:21.143Z,37.30
2018-01-30T19:43:47.346Z,34.03
2018-01-30T19:46:13.508Z,27.90
2018-01-30T19:48:39.725Z,23.43
2018-01-30T19:51:05.897Z,21.53
2018-01-30T19:53:32.083Z,21.00
2018-01-30T19:55:58.299Z,23.17
2018-01-30T19:58:24.528Z,24.47
2018-01-30T20:00:50.722Z,24.03
2018-01-30T20:03:16.922Z,63.90
2018-01-30T20:05:43.149Z,41.00
2018-01-30T20:08:09.372Z,45.13
2018-01-30T20:10:35.599Z,56.80
2018-01-30T20:13:01.781Z,46.87
2018-01-30T20:15:27.948Z,72.77
2018-01-30T20:17:54.183Z,51.33
2018-01-30T20:20:20.377Z,36.87
2018-01-30T20:22:46.599Z,37.33
2018-01-30T20:25:12.989Z,36.83
2018-01-30T20:27:39.188Z,34.67
2018-01-30T20:30:05.365Z,32.47
2018-01-30T20:32:31.576Z,30.43
2018-01-30T20:34:57.792Z,34.03
2018-01-30T20:37:24.025Z,33.53
2018-01-30T20:39:50.224Z,31.87
2018-01-30T20:42:16.365Z,38.10
2018-01-30T20:44:42.553Z,37.70
2018-01-30T20:47:08.765Z,33.43
2018-01-30T20:49:34.986Z,34.10
2018-01-30T20:52:01.218Z,33.37
2018-01-30T20:54:27.402Z,33.03
2018-01-30T20:56:54.043Z,32.90
2018-01-30T20:59:20.402Z,33.73
2018-01-30T21:01:46.605Z,36.37
2018-01-30T21:04:12.889Z,35.93
2018-01-30T21:06:39.055Z,36.40
2018-01-30T21:09:05.242Z,37.30
2018-01-30T21:11:31.653Z,35.53
2018-01-30T21:13:57.829Z,33.00
2018-01-30T21:16:24.138Z,33.43
2018-01-30T21:18:50.378Z,36.50
2018-01-30T21:21:16.619Z,35.80
2018-01-30T21:23:43.047Z,36.47
2018-01-30T21:26:09.242Z,41.40
2018-01-30T21:28:35.437Z,38.27
2018-01-30T21:31:01.655Z,31.33
2018-01-30T21:33:27.942Z,31.80
2018-01-30T21:35:54.088Z,32.63
2018-01-30T21:38:20.230Z,31.40
2018-01-30T21:40:46.388Z,31.10
2018-01-30T21:43:12.562Z,30.30
2018-01-30T21:45:38.779Z,29.37
2018-01-30T21:48:04.979Z,29.47
2018-01-30T21:50:31.159Z,28.87
2018-01-30T21:52:57.307Z,28.30
2018-01-30T21:55:23.486Z,27.57
2018-01-30T21:57:49.662Z,24.30
2018-01-30T22:00:15.828Z,23.07
2018-01-30T22:02:42.011Z,21.87
2018-01-30T22:05:08.260Z,19.83
2018-01-30T22:07:34.391Z,19.80
2018-01-30T22:10:00.638Z,19.93
2018-01-30T22:12:26.834Z,19.73
2018-01-30T22:14:53.002Z,20.10
2018-01-30T22:17:19.236Z,21.23
2018-01-30T22:19:45.496Z,21.27
2018-01-30T22:22:11.655Z,23.43
2018-01-30T22:24:37.855Z,21.90
2018-01-30T22:27:04.061Z,21.03
2018-01-30T22:29:30.223Z,20.23
2018-01-30T22:31:56.431Z,21.07
2018-01-30T22:34:22.620Z,21.27
2018-01-30T22:36:48.792Z,22.27
2018-01-30T22:39:14.961Z,22.77
2018-01-30T22:41:41.088Z,22.67
2018-01-30T22:44:07.316Z,21.97
2018-01-30T22:46:33.552Z,22.33
